sensor_id;sensor_type;location;lat;lon;timestamp;P1;durP1;ratioP1;P2;durP2;ratioP2
5981;SDS011;3018;48.730;9.336;2023-03-30T00:02:19;7.38;;;4.50;;
5981;SDS011;3018;48.730;9.336;2023-03-30T00:04:48;9.02;;;3.78;;
5981;SDS011;3018;48.730;9.336;2023-03-30T00:07:14;6.43;;;3.58;;
5981;SDS011;3018;48.730;9.336;2023-03-30T00:09:41;8.40;;;2.90;;
5981;SDS011;3018;48.730;9.336;2023-03-30T00:12:07;11.85;;;3.47;;
5981;SDS011;3018;48.730;9.336;2023-03-30T00:14:33;7.47;;;3.47;;
5981;SDS011;3018;48.730;9.336;2023-03-30T00:17:01;6.70;;;3.30;;
5981;SDS011;3018;48.730;9.336;2023-03-30T00:19:27;8.07;;;3.20;;
5981;SDS011;3018;48.730;9.336;2023-03-30T00:21:55;6.85;;;3.00;;
5981;SDS011;3018;48.730;9.336;2023-03-30T00:24:22;8.40;;;3.45;;
5981;SDS011;3018;48.730;9.336;2023-03-30T00:26:48;5.88;;;3.10;;
5981;SDS011;3018;48.730;9.336;2023-03-30T00:29:14;10.43;;;3.20;;
5981;SDS011;3018;48.730;9.336;2023-03-30T00:31:41;5.47;;;2.30;;
5981;SDS011;3018;48.730;9.336;2023-03-30T00:34:07;14.10;;;3.47;;
5981;SDS011;3018;48.730;9.336;2023-03-30T00:36:34;10.90;;;3.17;;
5981;SDS011;3018;48.730;9.336;2023-03-30T00:39:02;6.53;;;3.17;;
5981;SDS011;3018;48.730;9.336;2023-03-30T00:41:30;6.53;;;3.53;;
5981;SDS011;3018;48.730;9.336;2023-03-30T00:43:57;10.77;;;4.13;;
5981;SDS011;3018;48.730;9.336;2023-03-30T00:46:24;10.80;;;4.05;;
5981;SDS011;3018;48.730;9.336;2023-03-30T00:48:50;9.25;;;4.20;;
5981;SDS011;3018;48.730;9.336;2023-03-30T00:51:17;8.20;;;3.67;;
5981;SDS011;3018;48.730;9.336;2023-03-30T00:53:44;5.80;;;4.07;;
5981;SDS011;3018;48.730;9.336;2023-03-30T00:56:13;6.30;;;3.55;;
5981;SDS011;3018;48.730;9.336;2023-03-30T00:58:41;10.27;;;3.72;;
5981;SDS011;3018;48.730;9.336;2023-03-30T01:01:09;10.82;;;4.60;;
5981;SDS011;3018;48.730;9.336;2023-03-30T01:03:37;9.27;;;4.32;;
5981;SDS011;3018;48.730;9.336;2023-03-30T01:06:07;7.88;;;3.75;;
5981;SDS011;3018;48.730;9.336;2023-03-30T01:08:34;8.88;;;4.15;;
5981;SDS011;3018;48.730;9.336;2023-03-30T01:11:02;11.15;;;4.65;;
5981;SDS011;3018;48.730;9.336;2023-03-30T01:13:32;11.27;;;4.20;;
5981;SDS011;3018;48.730;9.336;2023-03-30T01:16:01;11.02;;;4.30;;
5981;SDS011;3018;48.730;9.336;2023-03-30T01:18:35;12.88;;;5.43;;
5981;SDS011;3018;48.730;9.336;2023-03-30T01:21:08;11.20;;;5.38;;
5981;SDS011;3018;48.730;9.336;2023-03-30T01:23:43;9.50;;;4.70;;
5981;SDS011;3018;48.730;9.336;2023-03-30T01:26:23;12.88;;;4.40;;
5981;SDS011;3018;48.730;9.336;2023-03-30T01:28:58;11.40;;;4.75;;
5981;SDS011;3018;48.730;9.336;2023-03-30T01:34:16;15.95;;;6.38;;
5981;SDS011;3018;48.730;9.336;2023-03-30T01:36:57;7.90;;;4.63;;
5981;SDS011;3018;48.730;9.336;2023-03-30T01:42:12;13.07;;;5.00;;
5981;SDS011;3018;48.730;9.336;2023-03-30T01:44:42;6.72;;;4.20;;
5981;SDS011;3018;48.730;9.336;2023-03-30T01:47:12;7.68;;;4.45;;
5981;SDS011;3018;48.730;9.336;2023-03-30T01:49:40;10.35;;;4.43;;
5981;SDS011;3018;48.730;9.336;2023-03-30T01:52:11;12.48;;;3.75;;
5981;SDS011;3018;48.730;9.336;2023-03-30T01:54:40;9.38;;;4.40;;
5981;SDS011;3018;48.730;9.336;2023-03-30T01:57:08;11.25;;;4.10;;
5981;SDS011;3018;48.730;9.336;2023-03-30T01:59:39;9.25;;;3.95;;
5981;SDS011;3018;48.730;9.336;2023-03-30T02:02:08;9.73;;;4.10;;
5981;SDS011;3018;48.730;9.336;2023-03-30T02:04:36;12.93;;;4.00;;
5981;SDS011;3018;48.730;9.336;2023-03-30T02:07:05;6.65;;;3.95;;
5981;SDS011;3018;48.730;9.336;2023-03-30T02:09:33;8.82;;;3.67;;
5981;SDS011;3018;48.730;9.336;2023-03-30T02:12:00;14.45;;;4.20;;
5981;SDS011;3018;48.730;9.336;2023-03-30T02:14:28;9.82;;;3.55;;
5981;SDS011;3018;48.730;9.336;2023-03-30T02:16:57;8.30;;;4.20;;
5981;SDS011;3018;48.730;9.336;2023-03-30T02:19:25;6.68;;;3.30;;
5981;SDS011;3018;48.730;9.336;2023-03-30T02:21:52;12.18;;;4.28;;
5981;SDS011;3018;48.730;9.336;2023-03-30T02:24:19;11.38;;;4.03;;
5981;SDS011;3018;48.730;9.336;2023-03-30T02:26:48;14.23;;;4.32;;
5981;SDS011;3018;48.730;9.336;2023-03-30T02:29:15;15.60;;;4.05;;
5981;SDS011;3018;48.730;9.336;2023-03-30T02:31:42;9.40;;;4.30;;
5981;SDS011;3018;48.730;9.336;2023-03-30T02:34:11;10.13;;;4.03;;
5981;SDS011;3018;48.730;9.336;2023-03-30T02:36:43;15.02;;;3.85;;
5981;SDS011;3018;48.730;9.336;2023-03-30T02:39:19;11.57;;;4.50;;
5981;SDS011;3018;48.730;9.336;2023-03-30T02:42:00;10.63;;;3.67;;
5981;SDS011;3018;48.730;9.336;2023-03-30T02:44:31;12.32;;;3.60;;
5981;SDS011;3018;48.730;9.336;2023-03-30T02:47:03;6.63;;;3.92;;
5981;SDS011;3018;48.730;9.336;2023-03-30T02:49:36;10.93;;;3.63;;
5981;SDS011;3018;48.730;9.336;2023-03-30T02:52:07;7.85;;;3.25;;
5981;SDS011;3018;48.730;9.336;2023-03-30T02:54:37;8.23;;;3.28;;
5981;SDS011;3018;48.730;9.336;2023-03-30T02:57:08;10.27;;;3.22;;
5981;SDS011;3018;48.730;9.336;2023-03-30T02:59:36;9.95;;;3.00;;
5981;SDS011;3018;48.730;9.336;2023-03-30T03:02:05;13.25;;;3.13;;
5981;SDS011;3018;48.730;9.336;2023-03-30T03:04:35;9.77;;;3.13;;
5981;SDS011;3018;48.730;9.336;2023-03-30T03:07:02;13.18;;;3.03;;
5981;SDS011;3018;48.730;9.336;2023-03-30T03:09:29;14.93;;;3.42;;
5981;SDS011;3018;48.730;9.336;2023-03-30T03:11:55;11.90;;;3.33;;
5981;SDS011;3018;48.730;9.336;2023-03-30T03:14:22;11.25;;;3.20;;
5981;SDS011;3018;48.730;9.336;2023-03-30T03:16:50;10.70;;;3.20;;
5981;SDS011;3018;48.730;9.336;2023-03-30T03:19:16;13.50;;;3.20;;
5981;SDS011;3018;48.730;9.336;2023-03-30T03:21:44;12.30;;;3.83;;
5981;SDS011;3018;48.730;9.336;2023-03-30T03:24:10;14.43;;;3.58;;
5981;SDS011;3018;48.730;9.336;2023-03-30T03:26:41;8.98;;;3.13;;
5981;SDS011;3018;48.730;9.336;2023-03-30T03:29:07;9.60;;;3.30;;
5981;SDS011;3018;48.730;9.336;2023-03-30T03:31:33;17.55;;;3.03;;
5981;SDS011;3018;48.730;9.336;2023-03-30T03:34:00;17.98;;;3.70;;
5981;SDS011;3018;48.730;9.336;2023-03-30T03:36:26;15.15;;;3.03;;
5981;SDS011;3018;48.730;9.336;2023-03-30T03:38:54;12.38;;;3.63;;
5981;SDS011;3018;48.730;9.336;2023-03-30T03:41:20;18.55;;;3.17;;
5981;SDS011;3018;48.730;9.336;2023-03-30T03:43:46;10.63;;;3.00;;
5981;SDS011;3018;48.730;9.336;2023-03-30T03:46:13;14.77;;;3.42;;
5981;SDS011;3018;48.730;9.336;2023-03-30T03:48:39;11.32;;;3.13;;
5981;SDS011;3018;48.730;9.336;2023-03-30T03:51:05;14.35;;;3.55;;
5981;SDS011;3018;48.730;9.336;2023-03-30T03:53:32;13.13;;;3.45;;
5981;SDS011;3018;48.730;9.336;2023-03-30T03:56:00;24.13;;;9.73;;
5981;SDS011;3018;48.730;9.336;2023-03-30T03:58:27;11.35;;;3.60;;
5981;SDS011;3018;48.730;9.336;2023-03-30T04:00:56;16.17;;;4.55;;
5981;SDS011;3018;48.730;9.336;2023-03-30T04:03:22;18.45;;;4.90;;
5981;SDS011;3018;48.730;9.336;2023-03-30T04:05:49;14.15;;;5.07;;
5981;SDS011;3018;48.730;9.336;2023-03-30T04:08:15;17.55;;;4.45;;
5981;SDS011;3018;48.730;9.336;2023-03-30T04:10:42;10.50;;;3.20;;
5981;SDS011;3018;48.730;9.336;2023-03-30T04:13:09;21.50;;;3.97;;
5981;SDS011;3018;48.730;9.336;2023-03-30T04:15:36;14.60;;;3.75;;
5981;SDS011;3018;48.730;9.336;2023-03-30T04:18:02;14.43;;;3.95;;
5981;SDS011;3018;48.730;9.336;2023-03-30T04:20:29;17.05;;;3.83;;
5981;SDS011;3018;48.730;9.336;2023-03-30T04:22:55;16.38;;;4.10;;
5981;SDS011;3018;48.730;9.336;2023-03-30T04:25:25;13.32;;;3.55;;
5981;SDS011;3018;48.730;9.336;2023-03-30T04:27:53;18.00;;;3.85;;
5981;SDS011;3018;48.730;9.336;2023-03-30T04:30:21;17.60;;;4.88;;
5981;SDS011;3018;48.730;9.336;2023-03-30T04:32:48;15.13;;;3.60;;
5981;SDS011;3018;48.730;9.336;2023-03-30T04:35:26;9.30;;;3.72;;
5981;SDS011;3018;48.730;9.336;2023-03-30T04:37:53;12.48;;;4.18;;
5981;SDS011;3018;48.730;9.336;2023-03-30T04:40:19;16.73;;;4.63;;
5981;SDS011;3018;48.730;9.336;2023-03-30T04:42:45;12.75;;;4.32;;
5981;SDS011;3018;48.730;9.336;2023-03-30T04:45:14;10.23;;;4.10;;
5981;SDS011;3018;48.730;9.336;2023-03-30T04:47:42;12.45;;;4.03;;
5981;SDS011;3018;48.730;9.336;2023-03-30T04:50:09;13.85;;;4.82;;
5981;SDS011;3018;48.730;9.336;2023-03-30T04:52:35;19.13;;;4.60;;
5981;SDS011;3018;48.730;9.336;2023-03-30T04:55:01;9.23;;;4.20;;
5981;SDS011;3018;48.730;9.336;2023-03-30T04:57:27;16.05;;;4.22;;
5981;SDS011;3018;48.730;9.336;2023-03-30T04:59:54;11.65;;;4.20;;
5981;SDS011;3018;48.730;9.336;2023-03-30T05:02:20;11.15;;;4.72;;
5981;SDS011;3018;48.730;9.336;2023-03-30T05:04:47;13.57;;;4.82;;
5981;SDS011;3018;48.730;9.336;2023-03-30T05:07:14;18.10;;;4.47;;
5981;SDS011;3018;48.730;9.336;2023-03-30T05:09:40;17.50;;;4.85;;
5981;SDS011;3018;48.730;9.336;2023-03-30T05:12:06;18.60;;;4.47;;
5981;SDS011;3018;48.730;9.336;2023-03-30T05:14:33;11.80;;;4.38;;
5981;SDS011;3018;48.730;9.336;2023-03-30T05:16:59;16.40;;;4.75;;
5981;SDS011;3018;48.730;9.336;2023-03-30T05:19:25;7.45;;;4.25;;
5981;SDS011;3018;48.730;9.336;2023-03-30T05:21:53;15.82;;;4.63;;
5981;SDS011;3018;48.730;9.336;2023-03-30T05:24:19;11.63;;;4.43;;
5981;SDS011;3018;48.730;9.336;2023-03-30T05:26:45;11.18;;;4.60;;
5981;SDS011;3018;48.730;9.336;2023-03-30T05:29:12;17.98;;;5.63;;
5981;SDS011;3018;48.730;9.336;2023-03-30T05:31:38;22.20;;;5.82;;
5981;SDS011;3018;48.730;9.336;2023-03-30T05:34:04;18.13;;;5.32;;
5981;SDS011;3018;48.730;9.336;2023-03-30T05:36:31;26.20;;;6.00;;
5981;SDS011;3018;48.730;9.336;2023-03-30T05:39:00;19.67;;;6.47;;
5981;SDS011;3018;48.730;9.336;2023-03-30T05:41:28;16.60;;;6.45;;
5981;SDS011;3018;48.730;9.336;2023-03-30T05:43:55;15.50;;;6.03;;
5981;SDS011;3018;48.730;9.336;2023-03-30T05:46:22;22.20;;;6.00;;
5981;SDS011;3018;48.730;9.336;2023-03-30T05:48:48;14.70;;;5.78;;
5981;SDS011;3018;48.730;9.336;2023-03-30T05:51:14;18.73;;;6.20;;
5981;SDS011;3018;48.730;9.336;2023-03-30T05:53:40;14.20;;;5.90;;
5981;SDS011;3018;48.730;9.336;2023-03-30T05:56:10;19.08;;;5.80;;
5981;SDS011;3018;48.730;9.336;2023-03-30T05:58:36;16.67;;;5.57;;
5981;SDS011;3018;48.730;9.336;2023-03-30T06:01:03;15.52;;;5.53;;
5981;SDS011;3018;48.730;9.336;2023-03-30T06:03:29;22.58;;;5.57;;
5981;SDS011;3018;48.730;9.336;2023-03-30T06:05:56;13.50;;;5.25;;
5981;SDS011;3018;48.730;9.336;2023-03-30T06:08:22;21.27;;;5.07;;
5981;SDS011;3018;48.730;9.336;2023-03-30T06:10:51;19.80;;;5.22;;
5981;SDS011;3018;48.730;9.336;2023-03-30T06:13:18;24.90;;;6.07;;
5981;SDS011;3018;48.730;9.336;2023-03-30T06:15:45;21.52;;;5.18;;
5981;SDS011;3018;48.730;9.336;2023-03-30T06:18:11;16.63;;;4.75;;
5981;SDS011;3018;48.730;9.336;2023-03-30T06:20:37;19.23;;;5.15;;
5981;SDS011;3018;48.730;9.336;2023-03-30T06:23:04;22.50;;;5.32;;
5981;SDS011;3018;48.730;9.336;2023-03-30T06:25:30;14.52;;;5.78;;
5981;SDS011;3018;48.730;9.336;2023-03-30T06:27:56;20.33;;;6.07;;
5981;SDS011;3018;48.730;9.336;2023-03-30T06:30:24;17.73;;;5.57;;
5981;SDS011;3018;48.730;9.336;2023-03-30T06:32:50;17.63;;;5.88;;
5981;SDS011;3018;48.730;9.336;2023-03-30T06:35:17;13.10;;;5.18;;
5981;SDS011;3018;48.730;9.336;2023-03-30T06:37:43;20.88;;;5.20;;
5981;SDS011;3018;48.730;9.336;2023-03-30T06:40:10;19.70;;;5.80;;
5981;SDS011;3018;48.730;9.336;2023-03-30T06:42:37;18.52;;;5.90;;
5981;SDS011;3018;48.730;9.336;2023-03-30T06:45:04;16.20;;;6.07;;
5981;SDS011;3018;48.730;9.336;2023-03-30T06:47:32;19.38;;;6.28;;
5981;SDS011;3018;48.730;9.336;2023-03-30T06:49:58;11.68;;;5.40;;
5981;SDS011;3018;48.730;9.336;2023-03-30T06:52:24;18.55;;;5.70;;
5981;SDS011;3018;48.730;9.336;2023-03-30T06:54:51;14.82;;;5.15;;
5981;SDS011;3018;48.730;9.336;2023-03-30T06:57:17;13.07;;;4.78;;
5981;SDS011;3018;48.730;9.336;2023-03-30T06:59:43;19.30;;;5.43;;
5981;SDS011;3018;48.730;9.336;2023-03-30T07:02:11;18.92;;;5.53;;
5981;SDS011;3018;48.730;9.336;2023-03-30T07:04:39;17.88;;;5.80;;
5981;SDS011;3018;48.730;9.336;2023-03-30T07:07:05;16.13;;;5.18;;
5981;SDS011;3018;48.730;9.336;2023-03-30T07:09:32;19.00;;;5.72;;
5981;SDS011;3018;48.730;9.336;2023-03-30T07:11:58;15.07;;;5.38;;
5981;SDS011;3018;48.730;9.336;2023-03-30T07:14:25;16.15;;;5.38;;
5981;SDS011;3018;48.730;9.336;2023-03-30T07:16:51;16.63;;;4.40;;
5981;SDS011;3018;48.730;9.336;2023-03-30T07:19:18;12.50;;;4.88;;
5981;SDS011;3018;48.730;9.336;2023-03-30T07:21:45;16.77;;;4.45;;
5981;SDS011;3018;48.730;9.336;2023-03-30T07:24:11;18.50;;;4.70;;
5981;SDS011;3018;48.730;9.336;2023-03-30T07:26:38;18.98;;;4.60;;
5981;SDS011;3018;48.730;9.336;2023-03-30T07:29:04;14.57;;;5.10;;
5981;SDS011;3018;48.730;9.336;2023-03-30T07:31:31;16.85;;;3.95;;
5981;SDS011;3018;48.730;9.336;2023-03-30T07:33:57;22.00;;;4.97;;
5981;SDS011;3018;48.730;9.336;2023-03-30T07:36:24;20.88;;;4.43;;
5981;SDS011;3018;48.730;9.336;2023-03-30T07:38:51;15.77;;;3.95;;
5981;SDS011;3018;48.730;9.336;2023-03-30T07:41:18;10.07;;;3.83;;
5981;SDS011;3018;48.730;9.336;2023-03-30T07:43:44;17.38;;;4.30;;
5981;SDS011;3018;48.730;9.336;2023-03-30T07:46:10;8.75;;;3.58;;
5981;SDS011;3018;48.730;9.336;2023-03-30T07:48:37;13.98;;;3.75;;
5981;SDS011;3018;48.730;9.336;2023-03-30T07:51:04;9.93;;;3.60;;
5981;SDS011;3018;48.730;9.336;2023-03-30T07:53:30;14.27;;;4.07;;
5981;SDS011;3018;48.730;9.336;2023-03-30T07:55:58;14.50;;;3.70;;
5981;SDS011;3018;48.730;9.336;2023-03-30T07:58:24;12.70;;;3.95;;
5981;SDS011;3018;48.730;9.336;2023-03-30T08:00:51;10.85;;;3.22;;
5981;SDS011;3018;48.730;9.336;2023-03-30T08:03:18;10.05;;;3.92;;
5981;SDS011;3018;48.730;9.336;2023-03-30T08:05:50;13.25;;;3.20;;
5981;SDS011;3018;48.730;9.336;2023-03-30T08:08:16;11.93;;;4.13;;
5981;SDS011;3018;48.730;9.336;2023-03-30T08:10:43;12.77;;;3.70;;
5981;SDS011;3018;48.730;9.336;2023-03-30T08:13:11;10.85;;;3.80;;
5981;SDS011;3018;48.730;9.336;2023-03-30T08:15:37;10.15;;;3.67;;
5981;SDS011;3018;48.730;9.336;2023-03-30T08:18:04;9.80;;;3.67;;
5981;SDS011;3018;48.730;9.336;2023-03-30T08:20:32;14.05;;;3.95;;
5981;SDS011;3018;48.730;9.336;2023-03-30T08:22:58;16.98;;;4.38;;
5981;SDS011;3018;48.730;9.336;2023-03-30T08:25:25;10.93;;;4.30;;
5981;SDS011;3018;48.730;9.336;2023-03-30T08:27:51;17.45;;;4.55;;
5981;SDS011;3018;48.730;9.336;2023-03-30T08:30:19;11.35;;;4.35;;
5981;SDS011;3018;48.730;9.336;2023-03-30T08:32:45;15.30;;;4.22;;
5981;SDS011;3018;48.730;9.336;2023-03-30T08:35:12;11.32;;;4.03;;
5981;SDS011;3018;48.730;9.336;2023-03-30T08:37:38;10.13;;;3.83;;
5981;SDS011;3018;48.730;9.336;2023-03-30T08:40:05;10.77;;;3.63;;
5981;SDS011;3018;48.730;9.336;2023-03-30T08:42:37;10.77;;;3.97;;
5981;SDS011;3018;48.730;9.336;2023-03-30T08:45:09;10.15;;;3.42;;
5981;SDS011;3018;48.730;9.336;2023-03-30T08:47:38;13.82;;;3.55;;
5981;SDS011;3018;48.730;9.336;2023-03-30T08:50:06;9.73;;;3.90;;
5981;SDS011;3018;48.730;9.336;2023-03-30T08:52:34;8.38;;;3.47;;
5981;SDS011;3018;48.730;9.336;2023-03-30T08:55:01;12.02;;;4.18;;
5981;SDS011;3018;48.730;9.336;2023-03-30T08:57:33;10.27;;;5.13;;
5981;SDS011;3018;48.730;9.336;2023-03-30T09:00:05;8.18;;;4.25;;
5981;SDS011;3018;48.730;9.336;2023-03-30T09:02:36;11.90;;;4.50;;
5981;SDS011;3018;48.730;9.336;2023-03-30T09:05:11;13.48;;;4.25;;
5981;SDS011;3018;48.730;9.336;2023-03-30T09:07:42;18.52;;;5.15;;
5981;SDS011;3018;48.730;9.336;2023-03-30T09:10:11;11.02;;;4.88;;
5981;SDS011;3018;48.730;9.336;2023-03-30T09:12:39;11.27;;;4.10;;
5981;SDS011;3018;48.730;9.336;2023-03-30T09:15:07;10.23;;;4.47;;
5981;SDS011;3018;48.730;9.336;2023-03-30T09:17:37;7.30;;;3.42;;
5981;SDS011;3018;48.730;9.336;2023-03-30T09:20:05;10.35;;;3.60;;
5981;SDS011;3018;48.730;9.336;2023-03-30T09:22:36;6.72;;;2.88;;
5981;SDS011;3018;48.730;9.336;2023-03-30T09:25:04;10.00;;;3.35;;
5981;SDS011;3018;48.730;9.336;2023-03-30T09:27:33;12.07;;;3.22;;
5981;SDS011;3018;48.730;9.336;2023-03-30T09:30:08;10.68;;;3.30;;
5981;SDS011;3018;48.730;9.336;2023-03-30T09:32:40;10.90;;;3.63;;
5981;SDS011;3018;48.730;9.336;2023-03-30T09:35:11;12.95;;;3.92;;
5981;SDS011;3018;48.730;9.336;2023-03-30T09:37:41;14.45;;;3.72;;
5981;SDS011;3018;48.730;9.336;2023-03-30T09:40:14;9.10;;;3.58;;
5981;SDS011;3018;48.730;9.336;2023-03-30T09:42:45;9.10;;;3.17;;
5981;SDS011;3018;48.730;9.336;2023-03-30T09:45:12;11.40;;;3.42;;
5981;SDS011;3018;48.730;9.336;2023-03-30T09:47:40;9.32;;;3.33;;
5981;SDS011;3018;48.730;9.336;2023-03-30T09:50:07;8.20;;;3.05;;
5981;SDS011;3018;48.730;9.336;2023-03-30T09:52:34;12.10;;;3.25;;
5981;SDS011;3018;48.730;9.336;2023-03-30T09:55:16;12.35;;;2.50;;
5981;SDS011;3018;48.730;9.336;2023-03-30T09:57:43;12.35;;;3.13;;
5981;SDS011;3018;48.730;9.336;2023-03-30T10:00:21;10.05;;;2.67;;
5981;SDS011;3018;48.730;9.336;2023-03-30T10:02:53;8.77;;;2.65;;
5981;SDS011;3018;48.730;9.336;2023-03-30T10:05:20;17.90;;;8.13;;
5981;SDS011;3018;48.730;9.336;2023-03-30T10:07:49;11.23;;;2.65;;
5981;SDS011;3018;48.730;9.336;2023-03-30T10:10:25;6.20;;;2.50;;
5981;SDS011;3018;48.730;9.336;2023-03-30T10:12:52;10.68;;;2.42;;
5981;SDS011;3018;48.730;9.336;2023-03-30T10:15:19;6.20;;;2.10;;
5981;SDS011;3018;48.730;9.336;2023-03-30T10:17:47;6.43;;;2.80;;
5981;SDS011;3018;48.730;9.336;2023-03-30T10:20:19;6.50;;;2.20;;
5981;SDS011;3018;48.730;9.336;2023-03-30T10:22:50;9.13;;;2.30;;
5981;SDS011;3018;48.730;9.336;2023-03-30T10:25:18;4.43;;;2.22;;
5981;SDS011;3018;48.730;9.336;2023-03-30T10:27:47;3.85;;;2.00;;
5981;SDS011;3018;48.730;9.336;2023-03-30T10:30:17;4.35;;;2.40;;
5981;SDS011;3018;48.730;9.336;2023-03-30T10:32:43;3.70;;;2.20;;
5981;SDS011;3018;48.730;9.336;2023-03-30T10:35:10;6.47;;;2.10;;
5981;SDS011;3018;48.730;9.336;2023-03-30T10:37:37;2.00;;;1.90;;
5981;SDS011;3018;48.730;9.336;2023-03-30T10:40:08;6.35;;;2.25;;
5981;SDS011;3018;48.730;9.336;2023-03-30T10:42:36;10.02;;;2.65;;
5981;SDS011;3018;48.730;9.336;2023-03-30T10:45:04;18.23;;;9.55;;
5981;SDS011;3018;48.730;9.336;2023-03-30T10:47:35;5.90;;;3.20;;
5981;SDS011;3018;48.730;9.336;2023-03-30T10:50:05;3.88;;;2.60;;
5981;SDS011;3018;48.730;9.336;2023-03-30T10:52:35;4.18;;;2.83;;
5981;SDS011;3018;48.730;9.336;2023-03-30T10:55:06;7.35;;;2.97;;
5981;SDS011;3018;48.730;9.336;2023-03-30T10:57:38;7.78;;;3.22;;
5981;SDS011;3018;48.730;9.336;2023-03-30T11:00:14;4.07;;;2.88;;
5981;SDS011;3018;48.730;9.336;2023-03-30T11:02:53;3.40;;;2.38;;
5981;SDS011;3018;48.730;9.336;2023-03-30T11:05:23;3.33;;;2.40;;
5981;SDS011;3018;48.730;9.336;2023-03-30T11:07:51;4.80;;;2.20;;
5981;SDS011;3018;48.730;9.336;2023-03-30T11:10:20;5.05;;;2.47;;
5981;SDS011;3018;48.730;9.336;2023-03-30T11:12:53;8.20;;;2.95;;
5981;SDS011;3018;48.730;9.336;2023-03-30T11:15:23;4.85;;;2.70;;
5981;SDS011;3018;48.730;9.336;2023-03-30T11:17:53;3.58;;;2.80;;
5981;SDS011;3018;48.730;9.336;2023-03-30T11:20:23;8.77;;;3.00;;
5981;SDS011;3018;48.730;9.336;2023-03-30T11:22:53;7.18;;;2.75;;
5981;SDS011;3018;48.730;9.336;2023-03-30T11:25:21;4.97;;;2.92;;
5981;SDS011;3018;48.730;9.336;2023-03-30T11:27:50;7.20;;;3.08;;
5981;SDS011;3018;48.730;9.336;2023-03-30T11:30:18;8.80;;;2.78;;
5981;SDS011;3018;48.730;9.336;2023-03-30T11:32:48;5.93;;;2.83;;
5981;SDS011;3018;48.730;9.336;2023-03-30T11:35:18;7.68;;;3.00;;
5981;SDS011;3018;48.730;9.336;2023-03-30T11:37:46;6.13;;;2.40;;
5981;SDS011;3018;48.730;9.336;2023-03-30T11:40:16;5.90;;;2.30;;
5981;SDS011;3018;48.730;9.336;2023-03-30T11:42:43;5.40;;;2.22;;
5981;SDS011;3018;48.730;9.336;2023-03-30T11:45:15;5.18;;;2.33;;
5981;SDS011;3018;48.730;9.336;2023-03-30T11:47:46;5.25;;;2.65;;
5981;SDS011;3018;48.730;9.336;2023-03-30T11:53:12;4.70;;;2.65;;
5981;SDS011;3018;48.730;9.336;2023-03-30T11:55:50;6.40;;;2.80;;
5981;SDS011;3018;48.730;9.336;2023-03-30T11:58:24;7.57;;;2.75;;
5981;SDS011;3018;48.730;9.336;2023-03-30T12:00:56;5.78;;;2.30;;
5981;SDS011;3018;48.730;9.336;2023-03-30T12:03:30;6.82;;;2.28;;
5981;SDS011;3018;48.730;9.336;2023-03-30T12:06:03;6.72;;;3.00;;
5981;SDS011;3018;48.730;9.336;2023-03-30T12:08:39;6.22;;;2.58;;
5981;SDS011;3018;48.730;9.336;2023-03-30T12:11:11;7.00;;;2.70;;
5981;SDS011;3018;48.730;9.336;2023-03-30T12:13:38;10.98;;;3.53;;
5981;SDS011;3018;48.730;9.336;2023-03-30T12:16:06;6.15;;;2.63;;
5981;SDS011;3018;48.730;9.336;2023-03-30T12:18:35;5.28;;;3.03;;
5981;SDS011;3018;48.730;9.336;2023-03-30T12:21:10;7.15;;;2.83;;
5981;SDS011;3018;48.730;9.336;2023-03-30T12:23:42;11.27;;;3.20;;
5981;SDS011;3018;48.730;9.336;2023-03-30T12:26:16;7.03;;;2.90;;
5981;SDS011;3018;48.730;9.336;2023-03-30T12:28:45;7.07;;;2.88;;
5981;SDS011;3018;48.730;9.336;2023-03-30T12:31:11;9.98;;;2.97;;
5981;SDS011;3018;48.730;9.336;2023-03-30T12:33:43;7.15;;;2.92;;
5981;SDS011;3018;48.730;9.336;2023-03-30T12:36:20;12.25;;;3.28;;
5981;SDS011;3018;48.730;9.336;2023-03-30T12:38:51;7.80;;;2.80;;
5981;SDS011;3018;48.730;9.336;2023-03-30T12:41:21;6.72;;;3.05;;
5981;SDS011;3018;48.730;9.336;2023-03-30T12:43:58;6.65;;;2.95;;
5981;SDS011;3018;48.730;9.336;2023-03-30T12:46:29;8.75;;;2.97;;
5981;SDS011;3018;48.730;9.336;2023-03-30T12:49:00;6.05;;;2.80;;
5981;SDS011;3018;48.730;9.336;2023-03-30T12:51:33;3.88;;;2.53;;
5981;SDS011;3018;48.730;9.336;2023-03-30T12:54:09;5.85;;;2.83;;
5981;SDS011;3018;48.730;9.336;2023-03-30T12:56:41;5.45;;;2.10;;
5981;SDS011;3018;48.730;9.336;2023-03-30T12:59:34;8.73;;;2.90;;
5981;SDS011;3018;48.730;9.336;2023-03-30T13:02:16;4.88;;;2.42;;
5981;SDS011;3018;48.730;9.336;2023-03-30T13:04:44;4.88;;;2.40;;
5981;SDS011;3018;48.730;9.336;2023-03-30T13:07:13;4.63;;;2.30;;
5981;SDS011;3018;48.730;9.336;2023-03-30T13:09:52;7.57;;;2.63;;
5981;SDS011;3018;48.730;9.336;2023-03-30T13:12:37;8.32;;;2.67;;
5981;SDS011;3018;48.730;9.336;2023-03-30T13:15:18;6.90;;;2.58;;
5981;SDS011;3018;48.730;9.336;2023-03-30T13:17:55;8.25;;;2.70;;
5981;SDS011;3018;48.730;9.336;2023-03-30T13:20:27;4.38;;;2.15;;
5981;SDS011;3018;48.730;9.336;2023-03-30T13:23:02;4.32;;;2.20;;
5981;SDS011;3018;48.730;9.336;2023-03-30T13:25:37;4.63;;;2.40;;
5981;SDS011;3018;48.730;9.336;2023-03-30T13:30:45;3.95;;;2.00;;
5981;SDS011;3018;48.730;9.336;2023-03-30T13:33:12;5.97;;;2.35;;
5981;SDS011;3018;48.730;9.336;2023-03-30T13:35:46;8.55;;;3.00;;
5981;SDS011;3018;48.730;9.336;2023-03-30T13:38:20;6.00;;;2.17;;
5981;SDS011;3018;48.730;9.336;2023-03-30T13:40:52;4.93;;;2.22;;
5981;SDS011;3018;48.730;9.336;2023-03-30T13:43:22;4.07;;;1.98;;
5981;SDS011;3018;48.730;9.336;2023-03-30T13:45:53;5.85;;;2.50;;
5981;SDS011;3018;48.730;9.336;2023-03-30T13:48:28;5.53;;;2.50;;
5981;SDS011;3018;48.730;9.336;2023-03-30T13:50:57;6.60;;;2.50;;
5981;SDS011;3018;48.730;9.336;2023-03-30T13:53:25;7.57;;;2.53;;
5981;SDS011;3018;48.730;9.336;2023-03-30T13:55:53;6.28;;;2.63;;
5981;SDS011;3018;48.730;9.336;2023-03-30T13:58:20;6.55;;;2.10;;
5981;SDS011;3018;48.730;9.336;2023-03-30T14:00:48;6.72;;;2.40;;
5981;SDS011;3018;48.730;9.336;2023-03-30T14:03:25;3.80;;;2.22;;
5981;SDS011;3018;48.730;9.336;2023-03-30T14:05:52;2.40;;;1.77;;
5981;SDS011;3018;48.730;9.336;2023-03-30T14:08:19;7.47;;;1.98;;
5981;SDS011;3018;48.730;9.336;2023-03-30T14:10:45;4.13;;;1.55;;
5981;SDS011;3018;48.730;9.336;2023-03-30T14:13:13;5.60;;;1.77;;
5981;SDS011;3018;48.730;9.336;2023-03-30T14:15:40;3.13;;;1.58;;
5981;SDS011;3018;48.730;9.336;2023-03-30T14:18:09;4.00;;;2.10;;
5981;SDS011;3018;48.730;9.336;2023-03-30T14:20:40;7.22;;;1.73;;
5981;SDS011;3018;48.730;9.336;2023-03-30T14:23:12;3.63;;;1.77;;
5981;SDS011;3018;48.730;9.336;2023-03-30T14:25:39;3.80;;;1.55;;
5981;SDS011;3018;48.730;9.336;2023-03-30T14:28:09;2.50;;;1.20;;
5981;SDS011;3018;48.730;9.336;2023-03-30T14:30:46;3.15;;;1.30;;
5981;SDS011;3018;48.730;9.336;2023-03-30T14:33:13;4.38;;;1.60;;
5981;SDS011;3018;48.730;9.336;2023-03-30T14:35:42;4.68;;;1.60;;
5981;SDS011;3018;48.730;9.336;2023-03-30T14:38:11;3.85;;;1.90;;
5981;SDS011;3018;48.730;9.336;2023-03-30T14:40:38;1.73;;;1.52;;
5981;SDS011;3018;48.730;9.336;2023-03-30T14:43:05;3.65;;;1.63;;
5981;SDS011;3018;48.730;9.336;2023-03-30T14:45:32;4.07;;;1.55;;
5981;SDS011;3018;48.730;9.336;2023-03-30T14:48:00;3.83;;;1.50;;
5981;SDS011;3018;48.730;9.336;2023-03-30T14:50:26;5.90;;;1.50;;
5981;SDS011;3018;48.730;9.336;2023-03-30T14:52:53;4.93;;;1.33;;
5981;SDS011;3018;48.730;9.336;2023-03-30T14:55:20;4.40;;;1.73;;
5981;SDS011;3018;48.730;9.336;2023-03-30T14:57:47;5.55;;;1.58;;
5981;SDS011;3018;48.730;9.336;2023-03-30T15:00:15;2.05;;;1.38;;
5981;SDS011;3018;48.730;9.336;2023-03-30T15:02:42;2.25;;;1.40;;
5981;SDS011;3018;48.730;9.336;2023-03-30T15:05:10;7.85;;;1.83;;
5981;SDS011;3018;48.730;9.336;2023-03-30T15:07:36;1.60;;;1.35;;
5981;SDS011;3018;48.730;9.336;2023-03-30T15:10:04;5.45;;;1.80;;
5981;SDS011;3018;48.730;9.336;2023-03-30T15:12:31;6.38;;;1.58;;
5981;SDS011;3018;48.730;9.336;2023-03-30T15:14:59;2.85;;;1.60;;
5981;SDS011;3018;48.730;9.336;2023-03-30T15:17:26;4.35;;;1.63;;
5981;SDS011;3018;48.730;9.336;2023-03-30T15:19:53;3.85;;;1.70;;
5981;SDS011;3018;48.730;9.336;2023-03-30T15:22:23;7.47;;;1.85;;
5981;SDS011;3018;48.730;9.336;2023-03-30T15:24:51;3.25;;;1.67;;
5981;SDS011;3018;48.730;9.336;2023-03-30T15:27:18;3.65;;;1.55;;
5981;SDS011;3018;48.730;9.336;2023-03-30T15:29:44;3.97;;;1.63;;